Time;durP1;ratioP1;P1;durP2;ratioP2;P2;SDS_P1;SDS_P2;PMS_P1;PMS_P2;Temp;Humidity;BMP_temperature;BMP_pressure;BME280_temperature;BME280_humidity;BME280_pressure;Samples;Min_cycle;Max_cycle;Signal;HPM_P1;HPM_P2
2021/07/16 00:01:49;;;;;;;21.00;14.73;;;18.50;99.90;;;;;;4977566;28;20192;-76
2021/07/16 00:04:15;;;;;;;18.87;15.90;;;18.40;99.90;;;;;;4977624;28;20215;-76
2021/07/16 00:06:40;;;;;;;22.53;15.50;;;18.50;99.90;;;;;;4978499;28;20183;-76
2021/07/16 00:09:07;;;;;;;16.20;14.10;;;18.50;99.90;;;;;;4977804;28;20193;-76
2021/07/16 00:11:34;;;;;;;17.10;15.20;;;18.50;99.90;;;;;;4981786;28;20172;-76
2021/07/16 00:14:00;;;;;;;19.13;16.00;;;18.50;99.90;;;;;;4979862;28;20939;-76
2021/07/16 00:16:25;;;;;;;18.77;15.03;;;18.50;99.90;;;;;;4963396;28;20469;-76
2021/07/16 00:18:51;;;;;;;17.47;15.40;;;18.50;99.90;;;;;;4980939;28;20439;-76
2021/07/16 00:21:17;;;;;;;14.57;13.00;;;18.50;99.90;;;;;;4981586;28;20188;-76
2021/07/16 00:23:42;;;;;;;19.47;15.40;;;18.50;99.90;;;;;;4983693;28;20203;-76
2021/07/16 00:26:09;;;;;;;19.27;15.70;;;18.50;99.90;;;;;;4982277;28;20186;-77
2021/07/16 00:28:35;;;;;;;20.80;16.30;;;18.50;99.90;;;;;;4982067;28;20199;-76
2021/07/16 00:31:00;;;;;;;17.03;15.20;;;18.40;99.90;;;;;;4983690;28;20472;-76
2021/07/16 00:33:26;;;;;;;19.03;16.50;;;18.40;99.90;;;;;;4983698;28;20279;-76
2021/07/16 00:35:52;;;;;;;24.70;15.43;;;18.40;99.90;;;;;;4984071;28;20181;-76
2021/07/16 00:38:17;;;;;;;17.47;14.87;;;18.50;99.90;;;;;;4985199;28;20530;-76
2021/07/16 00:40:43;;;;;;;24.07;15.20;;;18.50;99.90;;;;;;4983187;28;20197;-76
2021/07/16 00:43:08;;;;;;;18.93;15.70;;;18.50;99.90;;;;;;4987427;28;20196;-76
2021/07/16 00:45:34;;;;;;;27.40;15.70;;;18.40;99.90;;;;;;4986843;28;20177;-76
2021/07/16 00:48:00;;;;;;;20.57;15.03;;;18.40;99.90;;;;;;4986630;28;20176;-75
2021/07/16 00:50:30;;;;;;;18.97;13.97;;;18.40;99.90;;;;;;4988195;28;20169;-75
2021/07/16 00:52:56;;;;;;;19.50;14.80;;;18.40;99.90;;;;;;4988114;28;20418;-75
2021/07/16 00:55:21;;;;;;;20.17;14.30;;;18.50;99.90;;;;;;4988513;28;20408;-75
2021/07/16 00:57:47;;;;;;;15.93;13.23;;;18.50;99.90;;;;;;4988604;28;20989;-76
2021/07/16 01:00:14;;;;;;;18.10;13.57;;;18.50;99.90;;;;;;4982574;28;20181;-76
2021/07/16 01:02:40;;;;;;;19.33;14.33;;;18.60;99.90;;;;;;4966283;28;20444;-76
2021/07/16 01:05:08;;;;;;;20.20;13.57;;;18.60;99.90;;;;;;4980986;28;20432;-76
2021/07/16 01:07:34;;;;;;;19.30;13.07;;;18.70;99.90;;;;;;4977940;28;20878;-76
2021/07/16 01:10:00;;;;;;;17.90;12.93;;;18.70;99.90;;;;;;4977147;28;20464;-76
2021/07/16 01:12:29;;;;;;;18.27;12.87;;;18.60;99.90;;;;;;4976514;28;20812;-77
2021/07/16 01:14:55;;;;;;;15.07;13.17;;;18.50;99.90;;;;;;4977140;28;20849;-75
2021/07/16 01:17:21;;;;;;;15.50;14.00;;;18.50;99.90;;;;;;4976577;28;20459;-76
2021/07/16 01:20:07;;;;;;;14.93;12.40;;;18.40;99.90;;;;;;4977038;28;20412;-76
2021/07/16 01:22:36;;;;;;;19.20;13.57;;;18.40;99.90;;;;;;4976972;28;20192;-76
2021/07/16 01:25:06;;;;;;;15.97;12.70;;;18.30;99.90;;;;;;4976894;28;20455;-75
2021/07/16 01:27:32;;;;;;;17.00;12.73;;;18.30;99.90;;;;;;4977537;28;20459;-76
2021/07/16 01:29:59;;;;;;;13.17;11.83;;;18.30;99.90;;;;;;4978463;28;20467;-77
2021/07/16 01:32:27;;;;;;;17.73;13.10;;;18.30;99.90;;;;;;4976437;28;20439;-76
2021/07/16 01:34:52;;;;;;;14.73;12.10;;;18.40;99.90;;;;;;4976313;28;20459;-76
2021/07/16 01:37:18;;;;;;;20.63;12.40;;;18.40;99.90;;;;;;4980901;28;20417;-77
2021/07/16 01:39:44;;;;;;;18.43;12.30;;;18.40;99.90;;;;;;4979896;28;20436;-76
2021/07/16 01:42:11;;;;;;;16.93;11.93;;;18.40;99.90;;;;;;4981458;28;20220;-77
2021/07/16 01:44:39;;;;;;;16.03;11.90;;;18.40;99.90;;;;;;4976454;28;20264;-77
2021/07/16 01:47:05;;;;;;;18.33;12.57;;;18.40;99.90;;;;;;4975853;28;20473;-76
2021/07/16 01:49:31;;;;;;;18.60;12.43;;;18.50;99.90;;;;;;4975751;28;20463;-76
2021/07/16 01:51:57;;;;;;;15.07;11.00;;;18.40;99.90;;;;;;4975877;28;20180;-76
2021/07/16 01:54:22;;;;;;;15.43;11.00;;;18.40;99.90;;;;;;4976010;28;20419;-77
2021/07/16 01:56:48;;;;;;;12.87;10.70;;;18.40;99.90;;;;;;4975818;28;20893;-76
2021/07/16 01:59:13;;;;;;;15.70;11.13;;;18.40;99.90;;;;;;4958883;28;20216;-76
2021/07/16 02:01:39;;;;;;;17.00;11.40;;;18.30;99.90;;;;;;4957996;28;20189;-76
2021/07/16 02:04:05;;;;;;;21.53;11.70;;;18.10;99.90;;;;;;4975160;28;20287;-77
2021/07/16 02:06:31;;;;;;;12.67;10.70;;;18.10;99.90;;;;;;4975467;28;20179;-76
2021/07/16 02:08:57;;;;;;;17.67;11.57;;;18.00;99.90;;;;;;4975213;28;20546;-76
2021/07/16 02:11:23;;;;;;;14.40;11.23;;;18.00;99.90;;;;;;4957656;28;20630;-76
2021/07/16 02:13:50;;;;;;;16.17;11.47;;;18.10;99.90;;;;;;4975103;28;20511;-76
2021/07/16 02:16:17;;;;;;;17.17;11.60;;;18.10;99.90;;;;;;4974784;28;20408;-77
2021/07/16 02:18:50;;;;;;;15.97;11.30;;;18.20;99.90;;;;;;4974907;28;20551;-76
2021/07/16 02:21:15;;;;;;;19.77;12.17;;;18.30;99.90;;;;;;4975766;28;20420;-76
2021/07/16 02:23:41;;;;;;;13.20;10.53;;;18.40;99.90;;;;;;4974969;28;20506;-76
2021/07/16 02:26:07;;;;;;;14.57;10.43;;;18.40;99.90;;;;;;4974632;28;20184;-77
2021/07/16 02:28:33;;;;;;;15.13;10.50;;;18.50;99.90;;;;;;4974976;28;20196;-78
2021/07/16 02:31:04;;;;;;;26.43;10.60;;;18.60;99.90;;;;;;4975073;28;20201;-77
2021/07/16 02:33:30;;;;;;;12.40;10.00;;;18.60;99.90;;;;;;4975076;28;20442;-77
2021/07/16 02:35:56;;;;;;;14.40;11.07;;;18.60;99.90;;;;;;4974520;28;20408;-75
2021/07/16 02:38:22;;;;;;;13.70;10.00;;;18.50;99.90;;;;;;4975269;28;20647;-76
2021/07/16 02:40:48;;;;;;;18.27;10.70;;;18.50;99.90;;;;;;4974796;28;20237;-76
2021/07/16 02:43:15;;;;;;;15.20;9.90;;;18.50;99.90;;;;;;4974863;28;20535;-75
2021/07/16 02:45:42;;;;;;;17.50;11.17;;;18.60;99.90;;;;;;4974540;28;20420;-75
2021/07/16 02:48:08;;;;;;;12.90;10.20;;;18.60;99.90;;;;;;4974587;28;20435;-76
2021/07/16 02:50:38;;;;;;;13.33;10.47;;;18.60;99.90;;;;;;4974688;28;20420;-77
2021/07/16 02:53:05;;;;;;;17.80;10.47;;;18.60;99.90;;;;;;4957255;28;20219;-76
2021/07/16 02:55:31;;;;;;;15.83;9.67;;;18.60;99.90;;;;;;4974183;28;20420;-76
2021/07/16 02:57:56;;;;;;;11.77;9.03;;;18.60;99.90;;;;;;4974629;28;20942;-76
2021/07/16 03:00:26;;;;;;;11.10;8.77;;;18.60;99.90;;;;;;4978917;28;20176;-76
2021/07/16 03:02:52;;;;;;;12.20;9.30;;;18.60;99.90;;;;;;4957344;28;20316;-76
2021/07/16 03:05:20;;;;;;;13.87;9.10;;;18.70;99.90;;;;;;4974346;28;20459;-76
2021/07/16 03:07:47;;;;;;;14.00;9.10;;;18.70;99.90;;;;;;4974912;28;20407;-76
2021/07/16 03:10:22;;;;;;;13.87;7.83;;;18.70;99.90;;;;;;4974202;28;20955;-76
2021/07/16 03:12:51;;;;;;;11.63;8.70;;;18.60;99.90;;;;;;4974733;28;20470;-75
2021/07/16 03:15:19;;;;;;;13.50;8.90;;;18.70;99.90;;;;;;4973910;28;20768;-76
2021/07/16 03:17:46;;;;;;;12.23;9.60;;;18.70;99.90;;;;;;4974764;28;20789;-75
2021/07/16 03:20:14;;;;;;;12.40;9.90;;;18.70;99.90;;;;;;4974520;28;20452;-76
2021/07/16 03:22:40;;;;;;;11.47;9.70;;;18.70;99.90;;;;;;4973976;28;20452;-76
2021/07/16 03:25:09;;;;;;;11.87;9.20;;;18.60;99.90;;;;;;4976786;28;20968;-76
2021/07/16 03:27:35;;;;;;;10.23;9.30;;;18.60;99.90;;;;;;4975028;28;20228;-76
2021/07/16 03:30:01;;;;;;;13.43;9.50;;;18.70;99.90;;;;;;4958482;28;20459;-76
2021/07/16 03:32:28;;;;;;;11.27;8.73;;;18.70;99.90;;;;;;4977677;28;20424;-76
2021/07/16 03:34:53;;;;;;;14.27;9.10;;;18.80;99.90;;;;;;4978148;28;20176;-76
2021/07/16 03:37:19;;;;;;;12.33;9.70;;;18.80;99.90;;;;;;4977754;28;20832;-76
2021/07/16 03:39:45;;;;;;;13.37;9.30;;;18.80;99.90;;;;;;4977816;28;20177;-77
2021/07/16 03:42:11;;;;;;;8.90;8.00;;;18.90;99.90;;;;;;4977048;28;20185;-76
2021/07/16 03:44:36;;;;;;;14.80;10.80;;;18.90;99.90;;;;;;4978221;28;20458;-76
2021/07/16 03:47:02;;;;;;;14.00;9.73;;;18.80;99.90;;;;;;4988054;28;20239;-77
2021/07/16 03:49:28;;;;;;;14.60;9.80;;;18.70;99.90;;;;;;4983724;28;20212;-76
2021/07/16 03:51:54;;;;;;;10.40;8.63;;;18.70;99.90;;;;;;4983971;28;20256;-75
2021/07/16 03:54:20;;;;;;;11.63;8.60;;;18.70;99.90;;;;;;4977840;28;20416;-75
2021/07/16 03:56:46;;;;;;;12.80;9.17;;;18.70;99.90;;;;;;4977617;28;20416;-75
2021/07/16 03:59:11;;;;;;;12.70;10.30;;;18.60;99.90;;;;;;4960138;28;20184;-75
2021/07/16 04:01:37;;;;;;;10.83;9.70;;;18.60;99.90;;;;;;4977953;28;20255;-75
2021/07/16 04:04:02;;;;;;;18.47;11.03;;;18.50;99.90;;;;;;4976308;28;20241;-77
2021/07/16 04:06:28;;;;;;;14.63;11.10;;;18.30;99.90;;;;;;4977306;28;20247;-75
2021/07/16 04:09:10;;;;;;;14.77;11.90;;;18.20;99.90;;;;;;4977440;28;20204;-75
2021/07/16 04:11:36;;;;;;;19.57;12.10;;;18.10;99.90;;;;;;4977798;28;20177;-76
2021/07/16 04:14:01;;;;;;;14.50;10.13;;;18.20;99.90;;;;;;4977097;28;20428;-75
2021/07/16 04:16:27;;;;;;;12.73;10.83;;;18.20;99.90;;;;;;4960201;28;20417;-75
2021/07/16 04:18:52;;;;;;;12.97;11.00;;;18.10;99.90;;;;;;4982297;28;20185;-75
2021/07/16 04:21:18;;;;;;;15.67;10.37;;;18.10;99.90;;;;;;4977969;28;20272;-76
2021/07/16 04:23:43;;;;;;;13.67;11.83;;;18.10;99.90;;;;;;4977996;28;20203;-76
2021/07/16 04:26:09;;;;;;;16.10;10.67;;;18.00;99.90;;;;;;4977485;28;20212;-76
2021/07/16 04:28:35;;;;;;;20.80;11.67;;;18.00;99.90;;;;;;4959519;28;20722;-75
2021/07/16 04:31:00;;;;;;;17.03;11.20;;;18.00;99.90;;;;;;4977219;28;20500;-75
2021/07/16 04:33:26;;;;;;;15.80;12.97;;;18.10;99.90;;;;;;4976659;28;20288;-75
2021/07/16 04:35:52;;;;;;;14.00;10.97;;;18.20;99.90;;;;;;4976878;28;20182;-76
2021/07/16 04:38:18;;;;;;;18.60;11.80;;;18.30;99.90;;;;;;4977616;28;20251;-76
2021/07/16 04:40:44;;;;;;;15.53;12.07;;;18.30;99.90;;;;;;4977405;28;20606;-75
2021/07/16 04:43:10;;;;;;;13.90;11.67;;;18.30;99.90;;;;;;4976838;28;20435;-75
2021/07/16 04:45:37;;;;;;;15.63;11.13;;;18.20;99.90;;;;;;4976860;28;20180;-75
2021/07/16 04:48:04;;;;;;;14.90;13.30;;;18.30;99.90;;;;;;4976450;28;20193;-76
2021/07/16 04:50:30;;;;;;;16.50;12.50;;;18.30;99.90;;;;;;4977545;28;20408;-76
2021/07/16 04:52:55;;;;;;;15.87;12.80;;;18.00;99.90;;;;;;4976912;28;20482;-76
2021/07/16 04:55:21;;;;;;;15.37;13.13;;;17.90;99.90;;;;;;4976585;28;20169;-75
2021/07/16 04:57:47;;;;;;;17.57;14.00;;;17.70;99.90;;;;;;4959107;28;20173;-75
2021/07/16 05:00:14;;;;;;;18.30;13.30;;;17.60;99.90;;;;;;4976476;28;20701;-76
2021/07/16 05:02:39;;;;;;;20.40;14.00;;;17.50;99.90;;;;;;4976422;28;20420;-75
2021/07/16 05:05:06;;;;;;;23.60;14.57;;;17.50;99.90;;;;;;4976107;28;20439;-76
2021/07/16 05:07:32;;;;;;;20.90;12.80;;;17.40;99.90;;;;;;4976239;28;20274;-77
2021/07/16 05:09:57;;;;;;;21.03;13.10;;;17.40;99.90;;;;;;4976080;28;20488;-76
2021/07/16 05:12:23;;;;;;;24.33;14.70;;;17.50;99.90;;;;;;4976303;28;20189;-76
2021/07/16 05:14:48;;;;;;;18.83;13.80;;;17.50;99.90;;;;;;4958887;28;20185;-76
2021/07/16 05:17:14;;;;;;;16.87;12.93;;;17.50;99.90;;;;;;4976239;28;20169;-75
2021/07/16 05:19:40;;;;;;;15.73;12.50;;;17.60;99.90;;;;;;4975655;28;20189;-76
2021/07/16 05:22:05;;;;;;;19.97;13.50;;;17.60;99.90;;;;;;4975887;28;20208;-76
2021/07/16 05:24:31;;;;;;;17.70;13.17;;;17.60;99.90;;;;;;4975987;28;20173;-75
2021/07/16 05:26:57;;;;;;;21.97;15.10;;;17.60;99.90;;;;;;4958426;28;20546;-76
2021/07/16 05:29:22;;;;;;;18.07;13.73;;;17.70;99.90;;;;;;4975803;28;20200;-76
2021/07/16 05:31:48;;;;;;;21.03;12.90;;;17.70;99.90;;;;;;4975896;28;20413;-76
2021/07/16 05:34:16;;;;;;;23.60;13.67;;;17.70;99.90;;;;;;4975363;28;20171;-77
2021/07/16 05:36:41;;;;;;;15.27;11.90;;;17.80;99.90;;;;;;4975979;28;20172;-76
2021/07/16 05:39:07;;;;;;;20.40;12.77;;;17.80;99.90;;;;;;4976325;28;20405;-76
2021/07/16 05:41:32;;;;;;;16.53;11.77;;;17.90;99.90;;;;;;4975485;28;20215;-75
2021/07/16 05:43:58;;;;;;;16.83;11.67;;;17.90;99.90;;;;;;4975957;28;20196;-77
2021/07/16 05:46:27;;;;;;;15.60;10.40;;;18.00;99.90;;;;;;4975624;28;20181;-77
2021/07/16 05:48:52;;;;;;;12.70;10.13;;;18.00;99.90;;;;;;4957916;28;20311;-76
2021/07/16 05:51:17;;;;;;;14.67;9.90;;;18.00;99.90;;;;;;4975522;28;20412;-75
2021/07/16 05:53:43;;;;;;;13.43;9.60;;;18.10;99.90;;;;;;4974733;28;20185;-77
2021/07/16 05:56:09;;;;;;;13.33;9.63;;;18.00;99.90;;;;;;4975006;28;20255;-76
2021/07/16 05:58:34;;;;;;;13.53;10.10;;;18.00;99.90;;;;;;4975761;28;20173;-76
2021/07/16 06:01:00;;;;;;;9.57;8.67;;;18.00;99.90;;;;;;4975102;28;20176;-77
2021/07/16 06:03:26;;;;;;;12.90;8.70;;;18.00;99.90;;;;;;4975165;28;20259;-77
2021/07/16 06:05:51;;;;;;;13.10;8.07;;;18.00;99.90;;;;;;4958143;28;20177;-77
2021/07/16 06:08:18;;;;;;;9.97;8.90;;;18.10;99.90;;;;;;4975640;28;20195;-77
2021/07/16 06:10:44;;;;;;;10.77;8.80;;;18.30;99.90;;;;;;4975848;28;20168;-77
2021/07/16 06:13:09;;;;;;;10.97;8.50;;;18.40;99.90;;;;;;4958334;28;20445;-77
2021/07/16 06:15:35;;;;;;;15.40;8.20;;;18.50;99.90;;;;;;4976402;28;20169;-77
2021/07/16 06:18:00;;;;;;;11.37;8.10;;;18.60;99.90;;;;;;4975810;28;20169;-77
2021/07/16 06:20:26;;;;;;;12.57;8.10;;;18.70;99.90;;;;;;4975226;28;20207;-77
2021/07/16 06:22:51;;;;;;;8.63;7.83;;;18.60;99.90;;;;;;4975372;28;20645;-77
2021/07/16 06:25:18;;;;;;;8.97;8.10;;;18.50;99.90;;;;;;4957907;28;20272;-76
2021/07/16 06:27:44;;;;;;;11.10;8.00;;;18.30;99.90;;;;;;4979465;28;20165;-77
2021/07/16 06:30:12;;;;;;;9.60;7.90;;;18.30;99.90;;;;;;4974941;28;20466;-76
2021/07/16 06:32:38;;;;;;;9.37;7.97;;;18.20;99.90;;;;;;4975873;28;20424;-75
2021/07/16 06:35:05;;;;;;;10.97;8.43;;;18.30;99.90;;;;;;4975089;28;20898;-76
2021/07/16 06:37:31;;;;;;;9.90;8.73;;;18.20;99.90;;;;;;4975013;28;20169;-76
2021/07/16 06:39:57;;;;;;;12.63;10.43;;;18.20;99.90;;;;;;4974970;28;20511;-76
2021/07/16 06:42:24;;;;;;;15.80;10.83;;;18.00;99.90;;;;;;4976357;28;20294;-76
2021/07/16 06:44:50;;;;;;;16.23;11.90;;;18.00;99.90;;;;;;4959479;28;20506;-77
2021/07/16 06:47:15;;;;;;;14.30;11.87;;;18.00;99.90;;;;;;4959992;28;20460;-77
2021/07/16 06:49:41;;;;;;;18.40;13.83;;;17.80;99.90;;;;;;4976386;28;20478;-75
2021/07/16 06:52:07;;;;;;;22.30;14.90;;;17.80;99.90;;;;;;4978378;28;20192;-76
2021/07/16 06:54:33;;;;;;;21.27;14.70;;;17.70;99.90;;;;;;4979365;28;20267;-76
2021/07/16 06:56:58;;;;;;;22.23;16.27;;;17.70;99.90;;;;;;4975923;28;20499;-76
2021/07/16 06:59:24;;;;;;;16.73;13.67;;;17.60;99.90;;;;;;4976561;28;20197;-75
2021/07/16 07:01:50;;;;;;;21.70;15.70;;;17.50;99.90;;;;;;4976192;28;20196;-76
2021/07/16 07:04:16;;;;;;;17.63;15.73;;;17.40;99.90;;;;;;4985752;28;20169;-76
2021/07/16 07:06:43;;;;;;;21.17;16.63;;;17.40;99.90;;;;;;4957712;29;20429;-76
2021/07/16 07:09:09;;;;;;;27.20;16.93;;;17.40;99.90;;;;;;4976769;28;20455;-75
2021/07/16 07:11:35;;;;;;;25.33;16.80;;;17.40;99.90;;;;;;4982217;28;20490;-76
2021/07/16 07:14:00;;;;;;;20.30;15.83;;;17.40;99.90;;;;;;4981163;28;20185;-76
2021/07/16 07:16:26;;;;;;;19.83;15.80;;;17.50;99.90;;;;;;4979152;28;20648;-76
2021/07/16 07:18:51;;;;;;;23.10;17.73;;;17.70;99.90;;;;;;4977885;28;20225;-77
2021/07/16 07:21:17;;;;;;;22.47;16.00;;;17.60;99.90;;;;;;4977173;28;20279;-76
2021/07/16 07:23:43;;;;;;;19.90;15.70;;;17.60;99.90;;;;;;4978565;28;20220;-76
2021/07/16 07:26:09;;;;;;;25.97;17.47;;;17.60;99.90;;;;;;4979435;28;20185;-76
2021/07/16 07:28:35;;;;;;;24.07;17.90;;;17.50;99.90;;;;;;4980706;28;20217;-75
2021/07/16 07:31:01;;;;;;;22.23;16.67;;;17.50;99.90;;;;;;4979029;28;20413;-76
2021/07/16 07:33:27;;;;;;;28.23;19.43;;;17.60;99.90;;;;;;4978844;28;20551;-76
2021/07/16 07:35:56;;;;;;;22.23;17.50;;;17.70;99.90;;;;;;4982367;28;20409;-76
2021/07/16 07:38:22;;;;;;;21.33;18.00;;;17.80;99.90;;;;;;4991051;28;20238;-76
2021/07/16 07:40:48;;;;;;;24.90;17.50;;;17.60;99.90;;;;;;4997787;28;20441;-75
2021/07/16 07:43:14;;;;;;;19.27;16.47;;;17.50;99.90;;;;;;4978792;28;20499;-76
2021/07/16 07:45:40;;;;;;;20.60;16.40;;;17.50;99.90;;;;;;4988633;28;20435;-76
2021/07/16 07:48:06;;;;;;;22.27;17.53;;;17.40;99.90;;;;;;4998666;28;20177;-75
2021/07/16 07:50:32;;;;;;;23.37;18.30;;;17.30;99.90;;;;;;4974419;28;20184;-76
2021/07/16 07:52:58;;;;;;;33.00;19.77;;;17.40;99.90;;;;;;4988456;28;20199;-76
2021/07/16 07:55:24;;;;;;;26.33;20.43;;;17.20;99.90;;;;;;4989691;28;20428;-76
2021/07/16 07:57:52;;;;;;;27.90;18.93;;;17.20;99.90;;;;;;4987619;28;20173;-75
2021/07/16 08:00:20;;;;;;;23.30;19.90;;;17.30;99.90;;;;;;4979414;28;20419;-77
2021/07/16 08:02:45;;;;;;;27.77;20.83;;;17.30;99.90;;;;;;4979000;28;20558;-76
2021/07/16 08:05:12;;;;;;;26.97;19.23;;;17.30;99.90;;;;;;4980196;28;20484;-75
2021/07/16 08:07:39;;;;;;;30.43;21.20;;;17.40;99.90;;;;;;4979332;28;20196;-76
2021/07/16 08:10:07;;;;;;;23.03;19.00;;;17.40;99.90;;;;;;4978744;28;20460;-76
2021/07/16 08:12:32;;;;;;;21.83;18.10;;;17.50;99.90;;;;;;4976686;28;20456;-77
2021/07/16 08:14:58;;;;;;;25.40;19.07;;;17.30;99.90;;;;;;4975437;28;20439;-77
2021/07/16 08:17:24;;;;;;;23.67;19.10;;;17.40;99.90;;;;;;4978366;28;20681;-78
2021/07/16 08:19:52;;;;;;;23.10;19.33;;;17.30;99.90;;;;;;4960629;28;20649;-77
2021/07/16 08:22:18;;;;;;;20.70;18.50;;;17.20;99.90;;;;;;4958598;28;20208;-75
2021/07/16 08:24:44;;;;;;;25.23;17.30;;;17.30;99.90;;;;;;4967883;28;20444;-75
2021/07/16 08:27:09;;;;;;;23.77;17.17;;;17.40;99.90;;;;;;4961265;28;20189;-75
2021/07/16 08:29:35;;;;;;;30.30;18.77;;;17.40;99.90;;;;;;4976106;28;20208;-76
2021/07/16 08:32:02;;;;;;;26.17;19.70;;;17.40;99.90;;;;;;4968771;28;20181;-77
2021/07/16 08:34:27;;;;;;;25.43;19.10;;;17.40;99.90;;;;;;4959306;28;20525;-76
2021/07/16 08:36:53;;;;;;;23.90;19.20;;;17.50;99.90;;;;;;4973647;28;20478;-73
2021/07/16 08:39:19;;;;;;;24.73;19.53;;;17.60;99.90;;;;;;4966852;28;20185;-73
2021/07/16 08:41:44;;;;;;;32.73;19.50;;;17.50;99.90;;;;;;4971900;28;20192;-73
2021/07/16 08:44:10;;;;;;;30.03;20.57;;;17.60;99.90;;;;;;4974779;28;20255;-77
2021/07/16 08:46:36;;;;;;;31.87;20.23;;;17.50;99.90;;;;;;4974823;28;20180;-77
2021/07/16 08:49:03;;;;;;;24.30;19.30;;;17.40;99.90;;;;;;4973583;28;20297;-76
2021/07/16 08:51:29;;;;;;;24.73;19.20;;;17.50;99.90;;;;;;4973775;28;20432;-77
2021/07/16 08:53:56;;;;;;;27.83;21.23;;;17.60;99.90;;;;;;4972576;28;20436;-77
2021/07/16 08:56:24;;;;;;;25.00;20.20;;;17.70;99.90;;;;;;4974610;28;20787;-77
2021/07/16 08:58:50;;;;;;;23.73;17.90;;;17.60;99.90;;;;;;4975621;28;20449;-77
2021/07/16 09:01:16;;;;;;;26.00;17.87;;;17.70;99.90;;;;;;4978416;28;20491;-77
2021/07/16 09:04:02;;;;;;;28.60;18.27;;;17.60;99.90;;;;;;4978400;28;20654;-75
2021/07/16 09:06:52;;;;;;;24.03;16.70;;;17.70;99.90;;;;;;4975648;28;20185;-77
2021/07/16 09:09:24;;;;;;;27.40;19.30;;;17.70;99.90;;;;;;4977178;28;20451;-77
2021/07/16 09:11:52;;;;;;;22.27;18.13;;;17.60;99.90;;;;;;4975521;28;20499;-76
2021/07/16 09:14:29;;;;;;;23.47;18.50;;;17.60;99.90;;;;;;4981047;28;20416;-77
2021/07/16 09:17:16;;;;;;;29.20;20.07;;;17.70;99.90;;;;;;4982436;28;20400;-76
2021/07/16 09:19:47;;;;;;;25.70;18.67;;;17.80;99.90;;;;;;4975196;28;20436;-77
2021/07/16 09:22:20;;;;;;;21.87;18.07;;;17.80;99.90;;;;;;4978296;28;20432;-77
2021/07/16 09:24:53;;;;;;;23.20;18.90;;;17.90;99.90;;;;;;4981043;28;20428;-76
2021/07/16 09:27:40;;;;;;;23.23;19.27;;;18.10;99.90;;;;;;4977578;28;20517;-77
2021/07/16 09:30:17;;;;;;;21.07;18.57;;;18.00;99.90;;;;;;4975587;28;20562;-76
2021/07/16 09:32:51;;;;;;;22.17;19.83;;;18.10;99.90;;;;;;4974794;28;20805;-77
2021/07/16 09:35:34;;;;;;;30.90;22.07;;;18.20;99.90;;;;;;4974211;28;20833;-77
2021/07/16 09:38:05;;;;;;;31.50;23.30;;;18.10;99.90;;;;;;4979498;28;20456;-77
2021/07/16 09:40:46;;;;;;;26.33;20.90;;;18.20;99.90;;;;;;4977944;28;20914;-76
2021/07/16 09:43:24;;;;;;;25.20;21.07;;;18.30;99.90;;;;;;4976645;28;20943;-76
2021/07/16 09:46:00;;;;;;;32.43;22.93;;;18.40;99.90;;;;;;4976823;28;20400;-76
2021/07/16 09:48:33;;;;;;;29.83;23.40;;;18.60;99.90;;;;;;4976872;28;20455;-76
2021/07/16 09:51:30;;;;;;;37.50;23.67;;;18.50;99.90;;;;;;4977895;28;20388;-76
2021/07/16 09:53:58;;;;;;;32.40;22.90;;;18.50;99.90;;;;;;4897502;29;20502;-76
2021/07/16 09:56:27;;;;;;;26.30;22.13;;;18.50;99.90;;;;;;4897926;29;20460;-75
2021/07/16 09:59:07;;;;;;;30.40;24.53;;;18.60;99.90;;;;;;4898120;29;20456;-76
2021/07/16 10:01:41;;;;;;;27.30;22.10;;;18.80;99.90;;;;;;4897565;29;20435;-77
2021/07/16 10:04:23;;;;;;;27.57;22.17;;;19.00;99.90;;;;;;4903413;29;20467;-76
2021/07/16 10:06:53;;;;;;;29.20;22.10;;;19.20;99.90;;;;;;4916883;29;20391;-77
2021/07/16 10:09:20;;;;;;;27.93;22.90;;;19.20;99.90;;;;;;4916358;29;20469;-76
2021/07/16 10:11:51;;;;;;;32.30;23.30;;;19.40;99.90;;;;;;4915830;29;20414;-75
2021/07/16 10:14:18;;;;;;;32.10;23.50;;;19.50;99.90;;;;;;4915609;29;20523;-76
2021/07/16 10:16:49;;;;;;;30.50;23.23;;;19.40;99.90;;;;;;4916204;29;20444;-75
2021/07/16 10:19:16;;;;;;;27.90;22.83;;;19.40;99.90;;;;;;4916117;29;20426;-76
2021/07/16 10:21:43;;;;;;;27.17;22.50;;;19.40;99.90;;;;;;4916948;29;20501;-76
2021/07/16 10:24:11;;;;;;;30.13;24.03;;;19.40;99.90;;;;;;4923698;29;20435;-76
2021/07/16 10:26:37;;;;;;;32.37;24.03;;;19.40;99.90;;;;;;4910060;29;20583;-76
2021/07/16 10:29:35;;;;;;;31.97;24.57;;;19.40;99.90;;;;;;4947183;28;20463;-76
2021/07/16 10:32:01;;;;;;;27.73;24.77;;;19.30;99.90;;;;;;4993505;28;20411;-77
2021/07/16 10:34:32;;;;;;;39.07;23.57;;;19.20;99.90;;;;;;4994704;28;20415;-76
2021/07/16 10:37:04;;;;;;;28.50;22.87;;;19.20;99.90;;;;;;4994657;28;20574;-76
2021/07/16 10:39:56;;;;;;;27.43;21.87;;;19.30;99.90;;;;;;4993936;28;20430;-75
2021/07/16 10:42:31;;;;;;;30.40;22.70;;;19.50;99.90;;;;;;4992356;28;20447;-75
2021/07/16 10:45:03;;;;;;;24.37;21.80;;;19.40;99.90;;;;;;4994662;28;20417;-75
2021/07/16 10:47:34;;;;;;;20.03;17.93;;;19.20;99.90;;;;;;4994126;28;20799;-75
2021/07/16 10:50:01;;;;;;;21.43;17.70;;;19.40;99.90;;;;;;4993930;28;20463;-72
2021/07/16 10:52:50;;;;;;;17.83;14.50;;;19.70;99.90;;;;;;4994578;28;20431;-71
2021/07/16 10:55:19;;;;;;;20.60;15.23;;;20.00;99.90;;;;;;4993433;28;20423;-72
2021/07/16 10:57:48;;;;;;;19.77;14.47;;;20.40;99.90;;;;;;4975054;28;20937;-71
2021/07/16 11:00:37;;;;;;;16.00;10.93;;;20.60;99.90;;;;;;4988708;28;20521;-71
2021/07/16 11:03:10;;;;;;;21.60;11.20;;;20.90;99.90;;;;;;4972115;28;20466;-71
2021/07/16 11:05:39;;;;;;;14.60;10.63;;;20.90;99.90;;;;;;4965667;28;20465;-71
2021/07/16 11:08:06;;;;;;;11.83;10.30;;;20.90;99.90;;;;;;4971590;28;20470;-71
2021/07/16 11:10:50;;;;;;;14.00;8.70;;;21.00;99.90;;;;;;4970702;28;20511;-71
2021/07/16 11:13:46;;;;;;;11.70;8.40;;;20.70;99.90;;;;;;4964809;28;21049;-72
2021/07/16 11:16:15;;;;;;;15.83;6.70;;;20.50;99.90;;;;;;4958525;28;20428;-71
2021/07/16 11:18:54;;;;;;;11.80;7.77;;;20.30;99.90;;;;;;4970591;28;20439;-71
2021/07/16 11:21:45;;;;;;;12.27;8.00;;;20.30;99.90;;;;;;4969182;28;20420;-71
2021/07/16 11:24:19;;;;;;;8.23;7.20;;;20.40;99.90;;;;;;4969716;28;20533;-71
2021/07/16 11:26:55;;;;;;;13.87;6.97;;;20.40;99.90;;;;;;4970911;28;20451;-72
2021/07/16 11:29:32;;;;;;;10.60;7.43;;;20.70;99.90;;;;;;4971013;28;20562;-73
2021/07/16 11:32:01;;;;;;;12.93;7.80;;;20.70;99.90;;;;;;4971966;28;20424;-70
2021/07/16 11:34:26;;;;;;;11.55;7.70;;;20.70;99.90;;;;;;4964133;28;20422;-72
2021/07/16 11:36:53;;;;;;;11.10;7.60;;;20.50;99.90;;;;;;4970107;28;20543;-73
2021/07/16 11:39:30;;;;;;;12.67;7.80;;;20.50;99.90;;;;;;4970368;28;20188;-70
2021/07/16 11:41:56;;;;;;;10.30;8.13;;;20.80;99.90;;;;;;4970083;28;20936;-72
2021/07/16 11:44:32;;;;;;;13.47;7.70;;;21.00;99.90;;;;;;4970153;28;20431;-71
2021/07/16 11:47:12;;;;;;;14.83;7.83;;;21.00;99.90;;;;;;4969705;28;20558;-71
2021/07/16 11:49:43;;;;;;;16.10;8.40;;;21.10;99.90;;;;;;4964582;28;20962;-71
2021/07/16 11:52:08;;;;;;;12.90;8.17;;;21.20;99.90;;;;;;4971617;28;20542;-71
2021/07/16 11:54:34;;;;;;;10.27;7.83;;;21.20;99.90;;;;;;4975043;28;20450;-72
2021/07/16 11:57:00;;;;;;;12.70;7.40;;;21.30;99.90;;;;;;4974654;28;20223;-72
2021/07/16 11:59:28;;;;;;;12.15;8.18;;;21.40;99.90;;;;;;4973733;28;20445;-71
2021/07/16 12:02:21;;;;;;;10.00;7.37;;;21.20;99.90;;;;;;4974293;28;20181;-71
2021/07/16 12:04:57;;;;;;;13.50;7.70;;;21.00;99.90;;;;;;4986757;28;20494;-71
2021/07/16 12:07:23;;;;;;;11.00;7.60;;;21.10;99.90;;;;;;5011098;28;20422;-71
2021/07/16 12:09:49;;;;;;;15.37;8.37;;;20.80;99.90;;;;;;4995134;28;20821;-71
2021/07/16 12:12:17;;;;;;;14.80;8.87;;;20.90;99.90;;;;;;5001720;28;20222;-71
2021/07/16 12:14:48;;;;;;;11.77;8.77;;;20.80;99.90;;;;;;5012775;28;20411;-72
2021/07/16 12:17:16;;;;;;;17.23;9.23;;;20.80;99.90;;;;;;5012967;28;20207;-71
2021/07/16 12:19:42;;;;;;;11.37;10.07;;;20.90;99.90;;;;;;5012680;28;20477;-72
2021/07/16 12:22:08;;;;;;;13.90;9.93;;;21.00;99.90;;;;;;4985835;28;20826;-72
2021/07/16 12:24:34;;;;;;;17.83;10.90;;;20.70;99.90;;;;;;5012331;28;20418;-71
2021/07/16 12:27:05;;;;;;;19.13;12.83;;;20.30;99.90;;;;;;5012363;28;20535;-71
2021/07/16 12:29:30;;;;;;;16.70;11.90;;;20.20;99.90;;;;;;5012489;28;20462;-71
2021/07/16 12:31:56;;;;;;;13.70;11.80;;;20.20;99.90;;;;;;5012334;28;20473;-72
2021/07/16 12:34:26;;;;;;;17.17;11.30;;;20.20;99.90;;;;;;4996840;28;20184;-72
2021/07/16 12:37:15;;;;;;;14.43;11.03;;;20.10;99.90;;;;;;5006827;28;20281;-72